createdAt,value
2018-01-07T00:01:58.078Z,1.73
2018-01-07T00:04:25.456Z,1.83
2018-01-07T00:06:52.895Z,1.97
2018-01-07T00:09:20.303Z,1.90
2018-01-07T00:11:47.678Z,2.30
2018-01-07T00:14:15.102Z,1.87
2018-01-07T00:16:42.499Z,1.70
2018-01-07T00:19:09.956Z,1.20
2018-01-07T00:21:37.318Z,1.53
2018-01-07T00:24:04.724Z,1.70
2018-01-07T00:26:32.110Z,1.63
2018-01-07T00:28:59.518Z,2.03
2018-01-07T00:31:26.918Z,2.40
2018-01-07T00:33:54.330Z,2.70
2018-01-07T00:36:21.730Z,2.60
2018-01-07T00:38:49.113Z,2.80
2018-01-07T00:41:16.543Z,2.97
2018-01-07T00:43:43.943Z,3.03
2018-01-07T00:46:11.361Z,3.27
2018-01-07T00:48:38.758Z,3.30
2018-01-07T00:51:06.171Z,3.40
2018-01-07T00:53:33.604Z,3.60
2018-01-07T00:56:01.024Z,3.87
2018-01-07T00:58:28.405Z,3.53
2018-01-07T01:00:55.816Z,3.70
2018-01-07T01:03:23.233Z,3.27
2018-01-07T01:05:50.633Z,2.87
2018-01-07T01:08:18.065Z,3.43
2018-01-07T01:10:45.458Z,3.60
2018-01-07T01:13:12.868Z,3.00
2018-01-07T01:15:40.241Z,3.57
2018-01-07T01:18:07.661Z,3.43
2018-01-07T01:20:35.053Z,3.10
2018-01-07T01:23:02.508Z,3.53
2018-01-07T01:25:29.893Z,3.03
2018-01-07T01:27:57.322Z,2.53
2018-01-07T01:30:24.724Z,2.53
2018-01-07T01:32:52.107Z,2.27
2018-01-07T01:35:20.409Z,2.90
2018-01-07T01:37:47.792Z,2.50
2018-01-07T01:40:15.193Z,2.70
2018-01-07T01:42:42.580Z,2.53
2018-01-07T01:45:10.000Z,3.23
2018-01-07T01:47:37.429Z,2.83
2018-01-07T01:50:04.875Z,2.80
2018-01-07T01:52:32.235Z,2.83
2018-01-07T01:54:59.639Z,2.70
2018-01-07T01:57:27.082Z,3.40
2018-01-07T01:59:54.501Z,2.53
2018-01-07T02:02:21.887Z,2.57
2018-01-07T02:04:49.282Z,3.60
2018-01-07T02:07:16.705Z,2.83
2018-01-07T02:09:44.104Z,3.60
2018-01-07T02:12:11.527Z,2.67
2018-01-07T02:14:38.924Z,3.23
2018-01-07T02:17:06.398Z,3.40
2018-01-07T02:19:33.769Z,3.80
2018-01-07T02:22:01.183Z,3.33
2018-01-07T02:24:28.583Z,3.40
2018-01-07T02:26:55.991Z,3.50
2018-01-07T02:29:23.389Z,3.60
2018-01-07T02:31:50.802Z,3.20
2018-01-07T02:34:18.216Z,2.90
2018-01-07T02:36:45.640Z,3.47
2018-01-07T02:39:13.050Z,3.40
2018-01-07T02:41:40.569Z,3.47
2018-01-07T02:44:07.950Z,3.50
2018-01-07T02:46:35.342Z,2.30
2018-01-07T02:49:02.743Z,2.93
2018-01-07T02:51:30.146Z,2.53
2018-01-07T02:53:57.725Z,3.10
2018-01-07T02:56:25.193Z,2.97
2018-01-07T02:58:52.610Z,2.80
2018-01-07T03:01:19.992Z,2.87
2018-01-07T03:03:47.419Z,3.23
2018-01-07T03:06:14.808Z,2.75
2018-01-07T03:08:42.303Z,2.70
2018-01-07T03:11:09.689Z,2.60
2018-01-07T03:13:37.066Z,2.60
2018-01-07T03:16:04.653Z,2.27
2018-01-07T03:18:32.055Z,2.67
2018-01-07T03:20:59.494Z,2.80
2018-01-07T03:23:26.900Z,2.85
2018-01-07T03:25:54.328Z,2.50
2018-01-07T03:28:21.713Z,2.80
2018-01-07T03:30:49.134Z,2.20
2018-01-07T03:33:16.517Z,2.33
2018-01-07T03:35:43.946Z,2.60
2018-01-07T03:38:11.322Z,2.37
2018-01-07T03:40:38.736Z,1.83
2018-01-07T03:43:06.194Z,2.33
2018-01-07T03:45:33.623Z,2.53
2018-01-07T03:48:01.004Z,2.35
2018-01-07T03:50:28.482Z,1.90
2018-01-07T03:52:55.911Z,2.70
2018-01-07T03:55:23.318Z,2.20
2018-01-07T03:57:51.219Z,2.40
2018-01-07T04:00:19.530Z,2.20
2018-01-07T04:02:46.892Z,2.10
2018-01-07T04:05:14.884Z,1.80
2018-01-07T04:07:42.297Z,2.00
2018-01-07T04:10:09.696Z,1.60
2018-01-07T04:12:37.137Z,2.00
2018-01-07T04:15:04.516Z,1.83
2018-01-07T04:17:31.935Z,1.63
2018-01-07T04:19:59.323Z,1.83
2018-01-07T04:22:26.758Z,1.73
2018-01-07T04:24:54.133Z,1.83
2018-01-07T04:27:21.541Z,1.60
2018-01-07T04:29:48.960Z,2.27
2018-01-07T04:32:16.368Z,2.03
2018-01-07T04:34:43.777Z,1.70
2018-01-07T04:37:11.180Z,2.00
2018-01-07T04:39:38.581Z,2.80
2018-01-07T04:42:05.990Z,1.93
2018-01-07T04:44:33.479Z,2.70
2018-01-07T04:47:00.852Z,2.33
2018-01-07T04:49:28.256Z,2.80
2018-01-07T04:51:56.340Z,2.60
2018-01-07T04:54:23.713Z,2.40
2018-01-07T04:56:51.136Z,2.53
2018-01-07T04:59:18.564Z,2.33
2018-01-07T05:01:45.978Z,2.77
2018-01-07T05:04:13.376Z,2.33
2018-01-07T05:06:40.782Z,2.53
2018-01-07T05:09:08.318Z,2.87
2018-01-07T05:11:35.758Z,3.07
2018-01-07T05:14:03.156Z,2.73
2018-01-07T05:16:30.592Z,2.80
2018-01-07T05:18:57.984Z,3.60
2018-01-07T05:21:25.377Z,2.97
2018-01-07T05:23:52.786Z,3.13
2018-01-07T05:26:20.177Z,3.10
2018-01-07T05:28:47.586Z,2.50
2018-01-07T05:31:15.108Z,2.93
2018-01-07T05:33:42.504Z,2.47
2018-01-07T05:36:09.884Z,3.33
2018-01-07T05:38:37.292Z,3.00
2018-01-07T05:41:04.700Z,4.00
2018-01-07T05:43:32.095Z,2.90
2018-01-07T05:45:59.499Z,2.50
2018-01-07T05:48:26.909Z,3.03
2018-01-07T05:50:54.308Z,2.90
2018-01-07T05:53:21.736Z,2.37
2018-01-07T05:55:49.129Z,2.70
2018-01-07T05:58:16.549Z,2.80
2018-01-07T06:00:43.977Z,2.63
2018-01-07T06:03:11.384Z,2.50
2018-01-07T06:05:38.793Z,3.58
2018-01-07T06:08:06.187Z,2.40
2018-01-07T06:10:33.601Z,3.00
2018-01-07T06:13:01.018Z,2.80
2018-01-07T06:15:28.453Z,3.10
2018-01-07T06:17:55.851Z,2.60
2018-01-07T06:20:23.233Z,2.80
2018-01-07T06:22:50.649Z,3.50
2018-01-07T06:25:18.045Z,3.33
2018-01-07T06:27:45.466Z,3.40
2018-01-07T06:30:12.859Z,4.23
2018-01-07T06:32:40.301Z,3.60
2018-01-07T06:35:07.716Z,4.03
2018-01-07T06:37:35.976Z,3.33
2018-01-07T06:40:03.398Z,3.40
2018-01-07T06:42:30.789Z,4.07
2018-01-07T06:44:58.212Z,3.73
2018-01-07T06:47:25.713Z,4.47
2018-01-07T06:49:53.142Z,4.03
2018-01-07T06:52:20.533Z,4.20
2018-01-07T06:54:47.999Z,4.30
2018-01-07T06:57:15.412Z,4.60
2018-01-07T06:59:42.825Z,4.97
2018-01-07T07:02:10.253Z,4.00
2018-01-07T07:04:37.689Z,5.10
2018-01-07T07:07:05.078Z,4.28
2018-01-07T07:09:32.466Z,4.70
2018-01-07T07:11:59.873Z,4.50
2018-01-07T07:14:27.277Z,5.00
2018-01-07T07:16:54.940Z,5.33
2018-01-07T07:19:22.350Z,5.93
2018-01-07T07:21:49.780Z,4.67
2018-01-07T07:24:17.180Z,5.20
2018-01-07T07:26:44.588Z,5.20
2018-01-07T07:29:11.966Z,4.90
2018-01-07T07:31:39.436Z,4.60
2018-01-07T07:34:06.846Z,5.30
2018-01-07T07:36:34.286Z,4.70
2018-01-07T07:39:01.665Z,4.40
2018-01-07T07:41:29.120Z,5.03
2018-01-07T07:43:56.505Z,4.37
2018-01-07T07:46:24.338Z,5.70
2018-01-07T07:48:51.744Z,5.00
2018-01-07T07:51:19.132Z,4.87
2018-01-07T07:53:46.540Z,4.90
2018-01-07T07:56:13.965Z,3.80
2018-01-07T07:58:41.413Z,4.15
2018-01-07T08:01:08.876Z,3.87
2018-01-07T08:03:36.279Z,3.53
2018-01-07T08:06:03.708Z,4.10
2018-01-07T08:08:31.128Z,3.90
2018-01-07T08:10:58.537Z,3.23
2018-01-07T08:13:25.953Z,3.20
2018-01-07T08:15:53.414Z,2.90
2018-01-07T08:18:20.838Z,2.90
2018-01-07T08:20:48.260Z,2.80
2018-01-07T08:23:15.648Z,2.33
2018-01-07T08:25:43.050Z,2.53
2018-01-07T08:28:10.570Z,1.60
2018-01-07T08:30:37.961Z,2.00
2018-01-07T08:33:05.358Z,2.10
2018-01-07T08:35:32.763Z,1.70
2018-01-07T08:38:00.158Z,2.47
2018-01-07T08:40:27.593Z,1.73
2018-01-07T08:42:54.986Z,1.70
2018-01-07T08:45:22.779Z,1.60
2018-01-07T08:47:50.190Z,1.90
2018-01-07T08:50:17.603Z,1.57
2018-01-07T08:52:45.030Z,1.70
2018-01-07T08:55:12.404Z,2.03
2018-01-07T08:57:39.825Z,1.95
2018-01-07T09:00:07.213Z,1.57
2018-01-07T09:02:34.654Z,1.50
2018-01-07T09:05:02.076Z,1.40
2018-01-07T09:07:29.481Z,1.30
2018-01-07T09:09:56.870Z,1.52
2018-01-07T09:12:24.277Z,1.67
2018-01-07T09:14:52.005Z,1.50
2018-01-07T09:17:19.425Z,1.60
2018-01-07T09:19:46.851Z,1.20
2018-01-07T09:22:14.273Z,1.10
2018-01-07T09:24:41.674Z,1.20
2018-01-07T09:27:09.098Z,1.60
2018-01-07T09:29:36.516Z,1.50
2018-01-07T09:32:03.923Z,1.48
2018-01-07T09:34:31.458Z,1.30
2018-01-07T09:36:58.996Z,1.10
2018-01-07T09:39:26.404Z,1.40
2018-01-07T09:41:53.819Z,1.10
2018-01-07T09:44:21.276Z,1.30
2018-01-07T09:46:48.668Z,0.90
2018-01-07T09:49:16.162Z,1.20
2018-01-07T09:51:43.624Z,1.10
2018-01-07T09:54:11.051Z,1.10
2018-01-07T09:56:38.431Z,1.30
2018-01-07T09:59:05.834Z,1.13
2018-01-07T10:01:33.245Z,1.10
2018-01-07T10:04:00.641Z,1.07
2018-01-07T10:06:28.090Z,1.55
2018-01-07T10:08:55.554Z,1.40
2018-01-07T10:11:22.968Z,1.70
2018-01-07T10:13:50.613Z,1.50
2018-01-07T10:16:18.005Z,1.37
2018-01-07T10:18:45.425Z,1.50
2018-01-07T10:21:12.915Z,1.50
2018-01-07T10:23:40.830Z,1.57
2018-01-07T10:26:09.145Z,1.47
2018-01-07T10:28:36.561Z,1.87
2018-01-07T10:31:04.024Z,1.30
2018-01-07T10:33:31.581Z,1.50
2018-01-07T10:35:58.946Z,1.60
2018-01-07T10:38:26.389Z,1.70
2018-01-07T10:40:53.785Z,1.63
2018-01-07T10:43:21.235Z,1.70
2018-01-07T10:45:48.629Z,1.87
2018-01-07T10:48:16.069Z,1.60
2018-01-07T10:50:43.503Z,1.53
2018-01-07T10:53:10.933Z,1.50
2018-01-07T10:55:38.341Z,1.60
2018-01-07T10:58:05.781Z,1.57
2018-01-07T11:00:38.752Z,1.60
2018-01-07T11:03:06.174Z,1.60
2018-01-07T11:05:33.625Z,1.50
2018-01-07T11:08:01.022Z,1.70
2018-01-07T11:10:28.694Z,1.67
2018-01-07T11:12:56.985Z,1.20
2018-01-07T11:15:24.394Z,1.43
2018-01-07T11:17:51.882Z,1.23
2018-01-07T11:20:19.345Z,1.77
2018-01-07T11:22:46.749Z,1.40
2018-01-07T11:25:14.140Z,1.63
2018-01-07T11:27:41.558Z,1.60
2018-01-07T11:30:11.776Z,1.60
2018-01-07T11:32:39.240Z,1.67
2018-01-07T11:35:06.670Z,1.80
2018-01-07T11:37:34.239Z,1.30
2018-01-07T11:40:01.641Z,1.40
2018-01-07T11:42:29.097Z,1.60
2018-01-07T11:44:56.524Z,1.40
2018-01-07T11:47:23.976Z,2.03
2018-01-07T11:49:51.438Z,1.47
2018-01-07T11:52:18.922Z,1.47
2018-01-07T11:54:46.370Z,1.40
2018-01-07T11:57:13.817Z,1.75
2018-01-07T11:59:41.306Z,1.30
2018-01-07T12:02:08.748Z,1.53
2018-01-07T12:04:36.186Z,1.57
2018-01-07T12:07:04.072Z,1.73
2018-01-07T12:09:31.578Z,1.50
2018-01-07T12:11:59.094Z,1.45
2018-01-07T12:14:26.619Z,1.73
2018-01-07T12:16:54.142Z,1.50
2018-01-07T12:19:21.634Z,1.30
2018-01-07T12:21:49.189Z,1.63
2018-01-07T12:24:16.678Z,1.60
2018-01-07T12:26:44.126Z,1.70
2018-01-07T12:29:11.643Z,1.63
2018-01-07T12:31:39.138Z,1.67
2018-01-07T12:34:06.828Z,1.60
2018-01-07T12:36:34.281Z,1.70
2018-01-07T12:39:01.728Z,1.87
2018-01-07T12:41:29.392Z,1.80
2018-01-07T12:43:56.833Z,1.50
2018-01-07T12:46:24.381Z,2.00
2018-01-07T12:48:51.869Z,2.10
2018-01-07T12:51:20.118Z,2.00
2018-01-07T12:53:57.273Z,2.30
2018-01-07T12:56:24.749Z,2.10
2018-01-07T12:58:52.374Z,2.60
2018-01-07T13:01:20.027Z,2.50
2018-01-07T13:03:47.442Z,2.33
2018-01-07T13:06:14.881Z,2.57
2018-01-07T13:08:42.330Z,2.80
2018-01-07T13:11:10.400Z,2.77
2018-01-07T13:13:37.841Z,3.10
2018-01-07T13:16:05.290Z,3.20
2018-01-07T13:18:32.691Z,2.57
2018-01-07T13:21:00.127Z,3.60
2018-01-07T13:23:27.621Z,3.50
2018-01-07T13:25:55.041Z,3.47
2018-01-07T13:28:22.436Z,4.13
2018-01-07T13:30:49.849Z,3.80
2018-01-07T13:33:17.265Z,3.60
2018-01-07T13:35:44.641Z,4.10
2018-01-07T13:38:12.093Z,4.20
2018-01-07T13:40:39.742Z,4.17
2018-01-07T13:43:07.378Z,4.00
2018-01-07T13:45:34.772Z,4.83
2018-01-07T13:48:02.203Z,4.20
2018-01-07T13:50:29.610Z,4.70
2018-01-07T13:52:57.054Z,4.20
2018-01-07T13:55:24.533Z,4.77
2018-01-07T13:57:51.975Z,4.40
2018-01-07T14:00:19.372Z,5.33
2018-01-07T14:02:46.777Z,4.70
2018-01-07T14:05:16.470Z,4.60
2018-01-07T14:07:44.401Z,5.13
2018-01-07T14:10:11.843Z,4.80
2018-01-07T14:12:39.285Z,4.63
2018-01-07T14:15:06.817Z,4.50
2018-01-07T14:17:34.375Z,5.43
2018-01-07T14:20:01.802Z,4.70
2018-01-07T14:22:29.214Z,4.53
2018-01-07T14:24:56.644Z,5.20
2018-01-07T14:27:24.191Z,5.10
2018-01-07T14:29:51.642Z,4.87
2018-01-07T14:32:19.074Z,5.23
2018-01-07T14:34:46.487Z,4.70
2018-01-07T14:37:13.941Z,5.20
2018-01-07T14:39:41.418Z,5.20
2018-01-07T14:42:09.159Z,5.20
2018-01-07T14:44:36.723Z,4.80
2018-01-07T14:47:04.209Z,4.90
2018-01-07T14:49:31.634Z,5.10
2018-01-07T14:51:59.086Z,6.07
2018-01-07T14:54:26.539Z,6.23
2018-01-07T14:56:53.952Z,5.67
2018-01-07T14:59:21.394Z,6.17
2018-01-07T15:01:48.815Z,6.33
2018-01-07T15:04:16.242Z,6.47
2018-01-07T15:06:43.699Z,6.53
2018-01-07T15:09:11.196Z,5.90
2018-01-07T15:11:38.598Z,7.17
2018-01-07T15:14:06.019Z,5.82
2018-01-07T15:16:33.562Z,7.33
2018-01-07T15:19:01.014Z,7.70
2018-01-07T15:21:28.499Z,6.57
2018-01-07T15:23:57.276Z,7.13
2018-01-07T15:26:24.729Z,6.80
2018-01-07T15:28:52.404Z,7.23
2018-01-07T15:31:19.920Z,7.40
2018-01-07T15:33:47.342Z,6.80
2018-01-07T15:36:14.838Z,7.13
2018-01-07T15:38:42.313Z,6.73
2018-01-07T15:41:09.769Z,8.07
2018-01-07T15:43:37.817Z,7.37
2018-01-07T15:46:05.274Z,6.47
2018-01-07T15:48:32.666Z,7.00
2018-01-07T15:51:00.082Z,6.68
2018-01-07T15:53:28.281Z,8.10
2018-01-07T15:55:55.722Z,6.80
2018-01-07T15:58:23.128Z,6.93
2018-01-07T16:00:50.568Z,6.80
2018-01-07T16:03:17.958Z,6.97
2018-01-07T16:05:45.367Z,7.40
2018-01-07T16:08:12.859Z,7.60
2018-01-07T16:10:40.456Z,7.63
2018-01-07T16:13:07.907Z,8.23
2018-01-07T16:15:35.299Z,7.70
2018-01-07T16:18:02.854Z,8.40
2018-01-07T16:20:30.461Z,8.38
2018-01-07T16:22:59.122Z,9.17
2018-01-07T16:25:26.618Z,9.93
2018-01-07T16:27:54.100Z,7.43
2018-01-07T16:30:21.495Z,8.10
2018-01-07T16:32:48.924Z,8.50
2018-01-07T16:35:16.488Z,9.33
2018-01-07T16:37:43.870Z,9.00
2018-01-07T16:40:11.283Z,9.00
2018-01-07T16:42:38.940Z,9.20
2018-01-07T16:45:06.376Z,9.90
2018-01-07T16:47:33.769Z,9.50
2018-01-07T16:50:01.415Z,9.97
2018-01-07T16:52:28.845Z,10.47
2018-01-07T16:54:56.706Z,10.00
2018-01-07T16:57:24.177Z,9.40
2018-01-07T16:59:51.769Z,9.60
2018-01-07T17:02:19.204Z,10.03
2018-01-07T17:04:46.676Z,9.13
2018-01-07T17:07:14.065Z,9.07
2018-01-07T17:09:41.509Z,9.07
2018-01-07T17:12:08.961Z,9.83
2018-01-07T17:14:36.448Z,10.03
2018-01-07T17:17:14.714Z,9.40
2018-01-07T17:19:42.143Z,9.10
2018-01-07T17:22:09.549Z,9.00
2018-01-07T17:24:36.982Z,9.83
2018-01-07T17:27:05.432Z,9.63
2018-01-07T17:29:32.837Z,8.95
2018-01-07T17:32:00.245Z,9.53
2018-01-07T17:34:27.651Z,8.90
2018-01-07T17:36:55.112Z,8.93
2018-01-07T17:39:22.488Z,8.57
2018-01-07T17:41:49.890Z,8.30
2018-01-07T17:44:17.321Z,8.53
2018-01-07T17:46:44.784Z,9.00
2018-01-07T17:49:12.213Z,8.87
2018-01-07T17:51:39.614Z,8.50
2018-01-07T17:54:07.431Z,9.20
2018-01-07T17:56:34.891Z,9.32
2018-01-07T17:59:02.370Z,8.73
2018-01-07T18:01:29.786Z,9.27
2018-01-07T18:03:57.215Z,8.57
2018-01-07T18:06:24.634Z,9.30
2018-01-07T18:08:52.094Z,9.63
2018-01-07T18:11:19.531Z,8.60
2018-01-07T18:13:46.929Z,9.27
2018-01-07T18:16:14.384Z,8.80
2018-01-07T18:18:42.860Z,9.57
2018-01-07T18:21:10.276Z,9.10
2018-01-07T18:23:38.719Z,7.73
2018-01-07T18:26:06.136Z,9.93
2018-01-07T18:28:33.562Z,9.50
2018-01-07T18:31:00.995Z,9.45
2018-01-07T18:33:28.438Z,9.10
2018-01-07T18:35:55.856Z,10.10
2018-01-07T18:38:23.414Z,11.00
2018-01-07T18:40:50.814Z,11.10
2018-01-07T18:43:18.252Z,10.40
2018-01-07T18:45:45.680Z,9.90
2018-01-07T18:48:13.697Z,9.88
2018-01-07T18:50:41.137Z,10.37
2018-01-07T18:53:08.631Z,10.23
2018-01-07T18:55:36.042Z,9.50
2018-01-07T18:58:03.472Z,10.23
2018-01-07T19:00:30.891Z,10.87
2018-01-07T19:02:58.345Z,10.70
2018-01-07T19:05:26.271Z,10.85
2018-01-07T19:07:53.717Z,11.20
2018-01-07T19:10:21.126Z,9.17
2018-01-07T19:12:48.546Z,10.83
2018-01-07T19:15:15.952Z,11.17
2018-01-07T19:17:43.388Z,10.40
2018-01-07T19:20:10.825Z,11.33
2018-01-07T19:22:38.287Z,12.17
2018-01-07T19:25:05.723Z,12.10
2018-01-07T19:27:33.153Z,10.50
2018-01-07T19:30:01.132Z,11.23
2018-01-07T19:32:28.589Z,11.20
2018-01-07T19:34:56.056Z,11.70
2018-01-07T19:37:23.519Z,11.70
2018-01-07T19:39:50.922Z,11.10
2018-01-07T19:42:18.619Z,12.30
2018-01-07T19:44:47.347Z,10.70
2018-01-07T19:47:14.904Z,11.37
2018-01-07T19:49:43.143Z,10.60
2018-01-07T19:52:10.551Z,11.13
2018-01-07T19:54:38.393Z,11.17
2018-01-07T19:57:06.216Z,12.23
2018-01-07T19:59:34.534Z,12.43
2018-01-07T20:02:01.988Z,11.80
2018-01-07T20:04:30.325Z,12.27
2018-01-07T20:06:58.133Z,11.87
2018-01-07T20:09:25.576Z,11.00
2018-01-07T20:11:53.009Z,10.67
2018-01-07T20:14:20.671Z,11.13
2018-01-07T20:16:48.425Z,11.63
2018-01-07T20:19:16.050Z,11.87
2018-01-07T20:21:43.498Z,11.40
2018-01-07T20:24:11.196Z,12.10
2018-01-07T20:26:38.965Z,12.33
2018-01-07T20:29:06.409Z,12.10
2018-01-07T20:31:33.876Z,12.93
2018-01-07T20:34:01.595Z,11.67
2018-01-07T20:36:29.080Z,12.17
2018-01-07T20:38:56.485Z,12.23
2018-01-07T20:41:23.942Z,11.87
2018-01-07T20:43:51.384Z,11.20
2018-01-07T20:46:18.842Z,11.77
2018-01-07T20:48:46.282Z,11.00
2018-01-07T20:51:13.748Z,11.00
2018-01-07T20:53:41.171Z,12.57
2018-01-07T20:56:08.682Z,11.60
2018-01-07T20:58:36.365Z,12.10
2018-01-07T21:01:03.802Z,11.55
2018-01-07T21:03:31.260Z,11.87
2018-01-07T21:05:58.704Z,12.00
2018-01-07T21:08:29.758Z,11.60
2018-01-07T21:10:57.176Z,10.37
2018-01-07T21:13:24.655Z,11.97
2018-01-07T21:15:52.063Z,11.30
2018-01-07T21:18:19.550Z,12.30
2018-01-07T21:20:47.004Z,10.67
2018-01-07T21:23:14.448Z,13.53
2018-01-07T21:25:41.900Z,12.70
2018-01-07T21:28:09.395Z,11.07
2018-01-07T21:30:36.794Z,11.43
2018-01-07T21:33:04.252Z,11.30
2018-01-07T21:35:31.669Z,11.90
2018-01-07T21:37:59.123Z,11.47
2018-01-07T21:40:27.193Z,12.52
2018-01-07T21:42:54.656Z,11.70
2018-01-07T21:45:22.106Z,11.70
2018-01-07T21:47:49.498Z,15.37
2018-01-07T21:50:16.964Z,12.50
2018-01-07T21:52:44.475Z,10.53
2018-01-07T21:55:11.941Z,11.13
2018-01-07T21:57:39.382Z,10.50
2018-01-07T22:00:33.594Z,10.30
2018-01-07T22:03:12.872Z,11.77
2018-01-07T22:05:40.303Z,10.57
2018-01-07T22:08:07.765Z,10.23
2018-01-07T22:10:35.178Z,11.30
2018-01-07T22:13:02.643Z,10.13
2018-01-07T22:15:30.078Z,10.10
2018-01-07T22:17:57.504Z,11.00
2018-01-07T22:20:24.909Z,10.83
2018-01-07T22:22:52.359Z,10.40
2018-01-07T22:25:19.788Z,11.10
2018-01-07T22:27:47.272Z,10.43
2018-01-07T22:30:15.171Z,10.17
2018-01-07T22:32:42.595Z,9.90
2018-01-07T22:35:10.030Z,10.83
2018-01-07T22:37:37.577Z,10.50
2018-01-07T22:40:04.917Z,9.90
2018-01-07T22:42:32.312Z,9.23
2018-01-07T22:44:59.780Z,10.67
2018-01-07T22:47:32.759Z,9.23
2018-01-07T22:50:00.366Z,9.30
2018-01-07T22:52:27.790Z,9.30
2018-01-07T22:54:55.225Z,9.23
2018-01-07T22:57:22.689Z,8.50
2018-01-07T22:59:50.111Z,8.63
2018-01-07T23:02:17.539Z,9.00
2018-01-07T23:04:44.978Z,10.47
2018-01-07T23:07:12.398Z,9.90
2018-01-07T23:09:39.847Z,9.63
2018-01-07T23:12:09.445Z,7.80
2018-01-07T23:14:36.892Z,9.37
2018-01-07T23:17:04.339Z,9.20
2018-01-07T23:19:31.812Z,8.02
2018-01-07T23:21:59.242Z,8.97
2018-01-07T23:24:26.651Z,7.57
2018-01-07T23:26:54.082Z,7.83
2018-01-07T23:29:21.505Z,7.47
2018-01-07T23:31:48.973Z,7.60
2018-01-07T23:34:16.897Z,8.07
2018-01-07T23:36:44.332Z,8.50
2018-01-07T23:39:11.761Z,8.77
2018-01-07T23:41:40.454Z,7.93
2018-01-07T23:44:07.840Z,7.85
2018-01-07T23:46:35.558Z,7.73
2018-01-07T23:49:02.954Z,8.15
2018-01-07T23:51:30.400Z,8.00
2018-01-07T23:53:57.826Z,8.30
2018-01-07T23:56:25.234Z,8.60
2018-01-07T23:58:52.662Z,7.90
